Owensboro Daviess County Airport
KOWB : now visible

Airfield :











YOU CAN JOIN US ON...

 
LOGIN :

Register | Disclaimer

   EN    FR    IT 

 









Legend :    VFR   Marginal VFR   IFR   Intensive IFR   Very Intensive IFR
Visi :
Ceiling :
>= 8 km
>= 3000ft
5 to 8 km
1000 to 3000 ft
1500m to 5 km
500 to 1000 ft
800 to 1500m
200 to 500 ft
< 800m
< 200 ft
Symbols :   Thunderstorms  Fog  Heavy snow  Heavy precipitations  Wind > 20 kt






- Airport Elevation : 407 ft
- IATA code : OWB


KOWB - Owensboro Daviess County

CURRENT METAR :
  • 191656Z 22004KT 10SM SCT047 BKN100 28/18 A3000 RMK AO2 SLP156 T02830183

EXPIRED METARs :
  • 191556Z 00000KT 10SM SCT100 28/18 A3002 RMK AO2 SLP161 T02830178
  • 191456Z 00000KT 10SM CLR 27/18 A3003 RMK AO2 SLP164 T02670183 51008

TAF KOWB
Valid from the 19 at 18:00 until the 20 at 18:00 UTC


191740Z 1918/2018 VRB03KT P6SM FEW050
FM200000 VRB03KT P6SM FEW050
FM201700 20005KT P6SM SCT150
KZID FIR / North America



MET'MAP, your aeronautical weather chart ! - Copyright ORBIFLY December 2007 - Disclaimer

ORBIFLY MET'MAP TEAM :

Programming & Development : Alexandra Zaïnal
Original concept : Baudouin d'Aumeries
Technical & hardware support : Manuel Goepfert
Assistance : Marc-Olivier Méhu




SOURCES & CREDITS :

   NOAA       Earth
Advisory